Terminal Aerodrome Forecast
Issued by NWS Shreveport, LA

Home | Current Version | Previous Version | Text Only | Print | Product List | Glossary On
Versions: 1 2 3 4 5 6 7 8 9 10 11 12 13 14 15
000
FTUS44 KSHV 191100
TAFSHV
TAF
KSHV 191120Z 1912/2012 00000KT P6SM SCT280
     FM191500 12005KT P6SM SCT035 BKN250
     FM200100 12003KT P6SM FEW050 BKN250=

USA.gov is the U.S. government's official web portal to all federal, state and local government web resources and services.